Time;durP1;ratioP1;P1;durP2;ratioP2;P2;SDS_P1;SDS_P2;PMS_P1;PMS_P2;Temp;Humidity;BMP_temperature;BMP_pressure;BME280_temperature;BME280_humidity;BME280_pressure;Samples;Min_cycle;Max_cycle;Signal;HPM_P1;HPM_P2
2024/04/17 00:00:25;;;;;;;4.68;3.70;;;3.50;99.90;;;;;;5452971;26;20006;-74
2024/04/17 00:02:52;;;;;;;4.18;3.78;;;3.50;99.90;;;;;;5471500;26;20014;-74
2024/04/17 00:05:19;;;;;;;6.68;3.28;;;3.70;99.90;;;;;;5518300;25;20070;-74
2024/04/17 00:07:46;;;;;;;5.22;3.35;;;3.40;99.90;;;;;;5490144;26;20443;-75
2024/04/17 00:10:13;;;;;;;5.78;4.05;;;3.40;99.90;;;;;;5518796;25;20070;-74
2024/04/17 00:12:40;;;;;;;5.95;3.17;;;3.40;99.90;;;;;;5488571;26;19994;-74
2024/04/17 00:15:07;;;;;;;5.85;2.42;;;3.30;99.90;;;;;;5489780;26;20432;-74
2024/04/17 00:17:34;;;;;;;3.58;3.30;;;3.30;99.90;;;;;;5519068;26;20053;-75
2024/04/17 00:20:02;;;;;;;4.43;3.92;;;3.20;99.90;;;;;;5488418;26;20443;-74
2024/04/17 00:22:29;;;;;;;5.22;3.47;;;3.20;99.90;;;;;;5488368;26;19998;-74
2024/04/17 00:24:57;;;;;;;8.48;5.85;;;3.20;99.90;;;;;;5488311;26;19998;-74
2024/04/17 00:27:24;;;;;;;6.47;3.90;;;3.10;99.90;;;;;;5490504;26;19998;-74
2024/04/17 00:29:51;;;;;;;8.77;3.33;;;3.20;99.90;;;;;;5490112;26;19998;-74
2024/04/17 00:32:18;;;;;;;5.65;2.95;;;3.10;99.90;;;;;;5489695;26;19998;-74
2024/04/17 00:34:45;;;;;;;5.68;2.53;;;3.10;99.90;;;;;;5518863;26;20001;-74
2024/04/17 00:37:12;;;;;;;9.55;3.72;;;3.10;99.90;;;;;;5487958;26;19994;-74
2024/04/17 00:39:39;;;;;;;4.47;3.75;;;3.10;99.90;;;;;;5458040;26;20331;-74
2024/04/17 00:42:06;;;;;;;5.82;3.20;;;3.10;99.90;;;;;;5488155;26;19994;-74
2024/04/17 00:44:33;;;;;;;2.92;2.72;;;3.00;99.90;;;;;;5490052;26;20012;-74
2024/04/17 00:47:00;;;;;;;6.93;3.70;;;3.00;99.90;;;;;;5457892;26;20443;-74
2024/04/17 00:49:27;;;;;;;3.35;3.20;;;3.00;99.90;;;;;;5458167;26;19994;-74
2024/04/17 00:51:55;;;;;;;5.90;5.22;;;3.00;99.90;;;;;;5518761;26;20001;-74
2024/04/17 00:54:23;;;;;;;7.45;2.33;;;3.10;99.90;;;;;;5457456;26;20538;-74
2024/04/17 00:56:51;;;;;;;4.05;2.75;;;3.10;99.90;;;;;;5487933;26;19998;-74
2024/04/17 00:59:18;;;;;;;4.57;4.18;;;3.00;99.90;;;;;;5518136;26;20443;-74
2024/04/17 01:01:45;;;;;;;3.88;2.33;;;3.00;99.90;;;;;;5486289;26;19998;-74
2024/04/17 01:04:12;;;;;;;4.47;3.95;;;3.00;99.90;;;;;;5518025;26;20066;-74
2024/04/17 01:06:43;;;;;;;9.02;3.70;;;3.00;99.90;;;;;;5487839;26;19998;-74
2024/04/17 01:09:10;;;;;;;3.47;2.30;;;2.90;99.90;;;;;;5489246;26;19998;-74
2024/04/17 01:11:41;;;;;;;5.43;3.45;;;2.90;99.90;;;;;;5489477;26;19998;-74
2024/04/17 01:14:08;;;;;;;3.80;3.58;;;2.80;99.90;;;;;;5489611;26;20009;-74
2024/04/17 01:16:37;;;;;;;5.28;3.83;;;2.80;99.90;;;;;;5518660;26;19994;-74
2024/04/17 01:19:06;;;;;;;7.13;2.85;;;2.90;99.90;;;;;;5489593;26;20427;-74
2024/04/17 01:21:33;;;;;;;6.03;2.50;;;3.00;99.90;;;;;;5489525;26;19998;-74
2024/04/17 01:24:00;;;;;;;6.32;2.38;;;2.90;99.90;;;;;;5489264;26;20414;-74
2024/04/17 01:26:27;;;;;;;6.97;4.93;;;3.00;99.90;;;;;;5487347;26;20451;-74
2024/04/17 01:28:55;;;;;;;20.30;5.03;;;3.00;99.90;;;;;;5489588;26;20388;-73
2024/04/17 01:31:22;;;;;;;6.55;2.97;;;3.00;99.90;;;;;;5517815;26;20000;-74
2024/04/17 01:33:49;;;;;;;4.53;3.70;;;3.00;99.90;;;;;;5489009;26;20026;-74
2024/04/17 01:36:16;;;;;;;4.80;3.60;;;3.10;99.90;;;;;;5488926;26;19999;-75
2024/04/17 01:38:45;;;;;;;5.13;4.72;;;3.10;99.90;;;;;;5488901;26;20051;-74
2024/04/17 01:41:12;;;;;;;3.83;2.78;;;3.10;99.90;;;;;;5488689;26;20002;-74
2024/04/17 01:43:39;;;;;;;5.45;4.95;;;3.20;99.90;;;;;;5457017;26;20012;-74
2024/04/17 01:46:06;;;;;;;6.75;3.22;;;3.20;99.90;;;;;;5487061;26;20009;-74
2024/04/17 01:48:33;;;;;;;6.25;4.30;;;3.30;99.90;;;;;;5488929;26;19998;-74
2024/04/17 01:51:00;;;;;;;6.07;4.13;;;3.40;99.90;;;;;;5517693;26;20026;-74
2024/04/17 01:53:27;;;;;;;7.72;3.63;;;3.40;99.90;;;;;;5487005;26;19994;-74
2024/04/17 01:55:55;;;;;;;5.25;4.57;;;3.50;99.90;;;;;;5487829;26;20458;-74
2024/04/17 01:58:25;;;;;;;5.53;4.25;;;3.60;99.90;;;;;;5488460;26;20324;-74
2024/04/17 02:00:52;;;;;;;8.35;5.50;;;3.70;99.90;;;;;;5488626;26;19997;-74
2024/04/17 02:03:19;;;;;;;6.50;4.60;;;3.80;99.90;;;;;;5488320;26;20038;-74
2024/04/17 02:05:46;;;;;;;5.95;3.88;;;3.90;99.90;;;;;;5488532;26;20014;-74
2024/04/17 02:08:13;;;;;;;4.30;3.38;;;4.10;99.90;;;;;;5488308;26;19994;-74
2024/04/17 02:10:41;;;;;;;8.88;3.75;;;4.20;99.90;;;;;;5488386;26;20009;-74
2024/04/17 02:13:08;;;;;;;3.55;3.15;;;4.40;99.90;;;;;;5488431;26;20044;-74
2024/04/17 02:15:35;;;;;;;4.68;3.28;;;4.50;99.90;;;;;;5487824;26;20002;-74
2024/04/17 02:18:02;;;;;;;5.32;4.93;;;4.70;99.90;;;;;;5486490;26;20006;-74
2024/04/17 02:20:29;;;;;;;5.15;3.13;;;4.80;99.90;;;;;;5516743;26;20001;-74
2024/04/17 02:22:57;;;;;;;5.25;3.38;;;4.90;99.90;;;;;;5488272;26;20396;-74
2024/04/17 02:25:24;;;;;;;8.93;8.18;;;5.00;99.90;;;;;;5486170;26;20013;-74
2024/04/17 02:27:51;;;;;;;3.65;3.33;;;5.10;99.90;;;;;;5517200;26;19998;-74
2024/04/17 02:30:18;;;;;;;5.65;2.60;;;5.20;99.90;;;;;;5516568;26;20070;-74
2024/04/17 02:32:45;;;;;;;6.88;3.08;;;5.30;99.90;;;;;;5486167;26;20002;-74
2024/04/17 02:35:12;;;;;;;3.38;3.08;;;5.40;99.90;;;;;;5488433;26;19994;-75
2024/04/17 02:37:39;;;;;;;3.80;3.50;;;5.50;99.90;;;;;;5486326;26;20006;-74
2024/04/17 02:40:07;;;;;;;3.13;2.67;;;5.50;99.90;;;;;;5487817;26;20013;-74
2024/04/17 02:42:34;;;;;;;3.00;2.78;;;5.60;99.90;;;;;;5487712;26;20396;-74
2024/04/17 02:45:02;;;;;;;3.30;3.00;;;5.60;99.90;;;;;;5486385;26;20102;-74
2024/04/17 02:47:31;;;;;;;3.53;3.22;;;5.50;99.90;;;;;;5487875;26;20009;-74
2024/04/17 02:49:58;;;;;;;3.28;2.95;;;5.50;99.90;;;;;;5485844;26;20009;-74
2024/04/17 02:52:25;;;;;;;3.17;2.90;;;5.50;99.90;;;;;;5487493;26;20017;-74
2024/04/17 02:54:52;;;;;;;4.78;3.45;;;5.50;99.90;;;;;;5487539;26;20069;-74
2024/04/17 02:57:19;;;;;;;4.70;2.95;;;5.50;99.90;;;;;;5485338;26;19999;-74
2024/04/17 02:59:47;;;;;;;7.32;3.15;;;5.60;99.90;;;;;;5487532;26;20070;-74
2024/04/17 03:02:14;;;;;;;2.08;1.95;;;5.60;99.90;;;;;;5457730;26;20409;-74
2024/04/17 03:04:41;;;;;;;5.47;2.30;;;5.60;99.90;;;;;;5447869;26;20010;-74
2024/04/17 03:07:08;;;;;;;6.18;3.83;;;5.70;99.90;;;;;;5450379;26;20021;-74
2024/04/17 03:09:35;;;;;;;3.85;3.42;;;5.70;99.90;;;;;;5423058;26;20440;-74
2024/04/17 03:12:02;;;;;;;4.65;4.35;;;5.70;99.90;;;;;;5423442;26;20007;-74
2024/04/17 03:14:29;;;;;;;4.28;2.95;;;5.70;99.90;;;;;;5454863;26;20010;-74
2024/04/17 03:16:56;;;;;;;4.40;2.80;;;5.70;99.90;;;;;;5483713;26;20006;-74
2024/04/17 03:19:23;;;;;;;2.90;2.70;;;5.80;99.90;;;;;;5454413;26;20336;-74
2024/04/17 03:21:50;;;;;;;2.15;2.05;;;5.80;99.90;;;;;;5483585;26;20002;-74
2024/04/17 03:24:17;;;;;;;5.35;2.15;;;5.90;99.90;;;;;;5483594;26;19995;-74
2024/04/17 03:26:48;;;;;;;3.17;2.60;;;5.90;99.90;;;;;;5452472;26;20397;-74
2024/04/17 03:29:15;;;;;;;3.97;3.33;;;6.00;99.90;;;;;;5423132;26;19999;-74
2024/04/17 03:31:42;;;;;;;4.22;2.65;;;6.00;99.90;;;;;;5454264;26;20444;-74
2024/04/17 03:34:09;;;;;;;2.47;2.17;;;6.00;99.90;;;;;;5454414;26;20007;-74
2024/04/17 03:36:36;;;;;;;4.30;3.38;;;6.00;99.90;;;;;;5452423;26;20017;-74
2024/04/17 03:39:03;;;;;;;4.63;3.40;;;6.10;99.90;;;;;;5452624;26;19998;-74
2024/04/17 03:41:30;;;;;;;3.25;2.95;;;6.10;99.90;;;;;;5452440;26;19999;-74
2024/04/17 03:43:57;;;;;;;5.78;2.00;;;6.10;99.90;;;;;;5454387;26;19999;-74
2024/04/17 03:46:24;;;;;;;3.38;3.15;;;6.10;99.90;;;;;;5452316;26;20071;-74
2024/04/17 03:48:51;;;;;;;4.10;3.42;;;6.00;99.90;;;;;;5454341;26;20003;-74
2024/04/17 03:51:18;;;;;;;2.75;1.85;;;6.00;99.90;;;;;;5483216;26;19994;-74
2024/04/17 03:53:46;;;;;;;3.70;3.40;;;6.00;99.90;;;;;;5452122;26;20395;-74
2024/04/17 03:56:13;;;;;;;3.35;3.15;;;6.10;99.90;;;;;;5422672;26;19995;-74
2024/04/17 03:58:41;;;;;;;1.65;1.55;;;6.00;99.90;;;;;;5452553;26;19995;-74
2024/04/17 04:01:08;;;;;;;5.30;3.17;;;6.00;99.90;;;;;;5452771;26;20001;-74
2024/04/17 04:03:35;;;;;;;4.00;3.53;;;6.00;99.90;;;;;;5454094;26;20444;-74
2024/04/17 04:06:02;;;;;;;3.67;2.55;;;6.00;99.90;;;;;;5422554;26;20075;-74
2024/04/17 04:08:29;;;;;;;3.15;2.88;;;6.00;99.90;;;;;;5422329;26;20079;-74
2024/04/17 04:10:56;;;;;;;3.97;3.65;;;6.00;99.90;;;;;;5452408;26;19999;-74
2024/04/17 04:13:23;;;;;;;3.20;3.08;;;6.10;99.90;;;;;;5482367;26;20009;-74
2024/04/17 04:15:51;;;;;;;3.75;3.53;;;6.00;99.90;;;;;;5422053;26;20006;-74
2024/04/17 04:18:18;;;;;;;4.20;3.90;;;6.00;99.90;;;;;;5453196;26;20002;-74
2024/04/17 04:20:46;;;;;;;3.45;2.13;;;6.10;99.90;;;;;;5453873;26;19999;-74
2024/04/17 04:23:13;;;;;;;5.30;3.78;;;6.10;99.90;;;;;;5451944;26;19999;-74
2024/04/17 04:25:41;;;;;;;4.55;4.30;;;6.10;99.90;;;;;;5451749;26;19999;-74
2024/04/17 04:28:08;;;;;;;3.58;2.42;;;6.10;99.90;;;;;;5454211;26;20479;-74
2024/04/17 04:30:39;;;;;;;3.10;1.83;;;6.10;99.90;;;;;;5451714;26;19995;-74
2024/04/17 04:33:08;;;;;;;4.32;2.75;;;6.00;99.90;;;;;;5453992;26;20010;-74
2024/04/17 04:35:35;;;;;;;7.32;3.78;;;6.00;99.90;;;;;;5451612;26;20524;-74
2024/04/17 04:38:02;;;;;;;3.67;3.05;;;6.00;99.90;;;;;;5451764;26;19994;-74
2024/04/17 04:40:29;;;;;;;5.05;2.25;;;6.00;99.90;;;;;;5452187;26;19995;-74
2024/04/17 04:42:56;;;;;;;2.78;1.90;;;5.90;99.90;;;;;;5422340;26;19999;-74
2024/04/17 04:45:24;;;;;;;3.80;1.80;;;6.00;99.90;;;;;;5453922;26;20053;-74
2024/04/17 04:47:51;;;;;;;3.90;1.65;;;6.00;99.90;;;;;;5451707;26;19995;-74
2024/04/17 04:50:18;;;;;;;3.17;2.38;;;6.00;99.90;;;;;;5453734;26;19995;-74
2024/04/17 04:52:46;;;;;;;2.83;2.72;;;6.10;99.90;;;;;;5451423;26;20010;-74
2024/04/17 04:55:13;;;;;;;2.47;2.03;;;6.20;99.90;;;;;;5453194;26;20079;-74
2024/04/17 04:57:40;;;;;;;3.90;3.33;;;6.20;99.90;;;;;;5452997;26;20018;-74
2024/04/17 05:00:08;;;;;;;2.95;2.67;;;6.20;99.90;;;;;;5453345;26;20002;-74
2024/04/17 05:02:35;;;;;;;4.88;4.47;;;6.30;99.90;;;;;;5457522;26;20321;-74
2024/04/17 05:05:02;;;;;;;2.35;2.20;;;6.40;99.90;;;;;;5452014;26;20003;-74
2024/04/17 05:07:29;;;;;;;2.30;2.20;;;6.40;99.90;;;;;;5452460;26;20046;-74
2024/04/17 05:09:56;;;;;;;3.40;3.20;;;6.40;99.90;;;;;;5421315;26;20040;-74
2024/04/17 05:12:23;;;;;;;3.22;3.08;;;6.50;99.90;;;;;;5453104;26;19999;-74
2024/04/17 05:14:50;;;;;;;2.50;2.35;;;6.50;99.90;;;;;;5453068;26;19994;-74
2024/04/17 05:17:17;;;;;;;2.78;2.58;;;6.60;99.90;;;;;;5451653;26;20006;-74
2024/04/17 05:19:45;;;;;;;3.13;2.92;;;6.70;99.90;;;;;;5450896;26;20008;-74
2024/04/17 05:22:12;;;;;;;2.25;2.15;;;6.70;99.90;;;;;;5421491;26;20390;-74
2024/04/17 05:24:39;;;;;;;2.92;2.72;;;6.80;99.90;;;;;;5451195;26;19995;-74
2024/04/17 05:27:06;;;;;;;2.63;2.50;;;6.80;99.90;;;;;;5451446;26;20006;-74
2024/04/17 05:29:33;;;;;;;2.80;2.67;;;6.90;99.90;;;;;;5450154;26;20500;-74
2024/04/17 05:32:00;;;;;;;2.33;2.13;;;6.90;99.90;;;;;;5452563;26;19999;-74
2024/04/17 05:34:27;;;;;;;5.53;4.10;;;6.90;99.90;;;;;;5452757;26;19999;-74
2024/04/17 05:36:55;;;;;;;2.53;2.42;;;6.90;99.90;;;;;;5452425;26;20556;-74
2024/04/17 05:39:22;;;;;;;2.13;1.90;;;6.90;99.90;;;;;;5481067;26;20333;-74
2024/04/17 05:41:49;;;;;;;3.40;2.80;;;6.90;99.90;;;;;;5450476;26;20072;-74
2024/04/17 05:44:16;;;;;;;2.03;1.92;;;6.90;99.90;;;;;;5450884;26;19999;-74
2024/04/17 05:46:43;;;;;;;3.33;3.13;;;7.00;99.90;;;;;;5450423;26;20432;-74
2024/04/17 05:49:10;;;;;;;1.95;1.73;;;7.00;99.90;;;;;;5451105;26;20496;-74
2024/04/17 05:51:37;;;;;;;3.83;2.47;;;7.00;99.90;;;;;;5452477;26;19999;-74
2024/04/17 05:54:04;;;;;;;1.95;1.85;;;7.00;99.90;;;;;;5480879;26;19995;-74
2024/04/17 05:56:31;;;;;;;1.58;1.42;;;7.00;99.90;;;;;;5420996;26;19995;-74
2024/04/17 05:58:58;;;;;;;4.18;2.97;;;7.00;99.90;;;;;;5452066;26;19995;-73
2024/04/17 06:01:26;;;;;;;2.40;1.83;;;7.10;99.90;;;;;;5454371;26;20034;-73
2024/04/17 06:03:53;;;;;;;1.63;1.52;;;7.20;99.90;;;;;;5466265;26;20002;-74
2024/04/17 06:06:21;;;;;;;1.63;1.52;;;7.10;99.90;;;;;;5486245;26;20013;-74
2024/04/17 06:08:48;;;;;;;4.05;1.25;;;7.10;99.90;;;;;;5488062;26;20013;-74
2024/04/17 06:11:15;;;;;;;1.98;1.85;;;7.10;99.90;;;;;;5500606;26;20000;-74
2024/04/17 06:13:43;;;;;;;1.50;1.50;;;7.10;99.90;;;;;;5450026;26;19999;-74
2024/04/17 06:16:10;;;;;;;1.70;1.67;;;7.10;99.90;;;;;;5451623;26;20031;-74
2024/04/17 06:18:37;;;;;;;4.13;1.55;;;7.10;99.90;;;;;;5451874;26;20401;-74
2024/04/17 06:21:04;;;;;;;2.20;2.20;;;7.10;99.90;;;;;;5451619;26;20011;-74
2024/04/17 06:23:31;;;;;;;3.60;1.25;;;7.10;99.90;;;;;;5450082;26;20043;-74
2024/04/17 06:25:59;;;;;;;4.60;2.60;;;7.20;99.90;;;;;;5451600;26;20011;-73
2024/04/17 06:28:26;;;;;;;3.03;2.55;;;7.20;99.90;;;;;;5450011;26;19999;-74
2024/04/17 06:30:53;;;;;;;2.28;1.60;;;7.20;99.90;;;;;;5449639;26;20335;-73
2024/04/17 06:33:20;;;;;;;3.22;1.58;;;7.30;99.90;;;;;;5450373;26;20005;-74
2024/04/17 06:35:47;;;;;;;1.80;1.73;;;7.20;99.90;;;;;;5451775;26;20009;-74
2024/04/17 06:38:17;;;;;;;1.50;1.40;;;7.30;99.90;;;;;;5450033;26;20067;-73
2024/04/17 06:40:44;;;;;;;1.17;1.17;;;7.40;99.90;;;;;;5451450;26;20515;-73
2024/04/17 06:43:11;;;;;;;5.20;1.83;;;7.50;99.90;;;;;;5455234;26;20456;-74
2024/04/17 06:45:38;;;;;;;1.15;1.05;;;7.60;99.90;;;;;;5483854;26;20018;-73
2024/04/17 06:48:07;;;;;;;2.45;2.25;;;7.60;99.90;;;;;;5454926;26;19995;-74
2024/04/17 06:50:35;;;;;;;3.08;1.67;;;7.60;99.90;;;;;;5454993;26;19999;-75
2024/04/17 06:53:02;;;;;;;2.40;1.50;;;7.70;99.90;;;;;;5453116;26;20044;-75
2024/04/17 06:55:29;;;;;;;1.08;1.08;;;7.60;99.90;;;;;;5454977;26;20321;-75
2024/04/17 06:57:57;;;;;;;0.98;0.98;;;7.50;99.90;;;;;;5453016;26;19999;-75
2024/04/17 07:00:31;;;;;;;1.55;1.45;;;7.40;99.90;;;;;;5452979;26;20074;-75
2024/04/17 07:02:58;;;;;;;0.95;0.93;;;7.30;99.90;;;;;;5452813;26;20326;-74
2024/04/17 07:05:30;;;;;;;2.42;1.42;;;7.20;99.90;;;;;;5424182;26;20076;-74
2024/04/17 07:07:57;;;;;;;2.72;1.67;;;7.10;99.90;;;;;;5452755;26;19998;-74
2024/04/17 07:10:24;;;;;;;2.75;1.80;;;7.00;99.90;;;;;;5454675;26;20007;-74
2024/04/17 07:12:51;;;;;;;2.53;1.85;;;6.90;99.90;;;;;;5455154;26;19995;-73
2024/04/17 07:15:18;;;;;;;1.98;1.88;;;6.80;99.90;;;;;;5453089;26;20011;-74
2024/04/17 07:17:45;;;;;;;2.10;1.98;;;6.80;99.90;;;;;;5453304;26;20010;-73
2024/04/17 07:20:15;;;;;;;1.70;1.42;;;6.80;99.90;;;;;;5482765;26;20000;-72
2024/04/17 07:22:42;;;;;;;2.30;1.23;;;6.70;99.90;;;;;;5453145;26;20319;-72
2024/04/17 07:25:11;;;;;;;3.80;1.65;;;6.60;99.90;;;;;;5452842;26;20068;-73
2024/04/17 07:27:41;;;;;;;2.72;0.98;;;6.50;99.90;;;;;;5453119;26;20075;-72
2024/04/17 07:30:09;;;;;;;1.77;1.40;;;6.50;99.90;;;;;;5452342;26;20010;-72
2024/04/17 07:32:36;;;;;;;5.50;2.40;;;6.50;99.90;;;;;;5452728;26;19999;-72
2024/04/17 07:35:04;;;;;;;0.93;0.80;;;6.40;99.90;;;;;;5454116;26;20405;-72
2024/04/17 07:37:31;;;;;;;2.15;1.50;;;6.30;99.90;;;;;;5454171;26;20003;-72
2024/04/17 07:39:59;;;;;;;3.08;1.95;;;6.30;99.90;;;;;;5451887;26;20023;-72
2024/04/17 07:42:26;;;;;;;2.55;2.00;;;6.30;99.90;;;;;;5451756;26;20013;-72
2024/04/17 07:44:53;;;;;;;1.98;1.52;;;6.30;99.90;;;;;;5454277;26;19999;-72
2024/04/17 07:47:20;;;;;;;4.07;1.75;;;6.20;99.90;;;;;;5454005;26;19998;-73
2024/04/17 07:49:47;;;;;;;1.58;1.33;;;6.20;99.90;;;;;;5452529;26;20027;-72
2024/04/17 07:52:14;;;;;;;2.67;1.20;;;6.20;99.90;;;;;;5453227;26;20388;-73
2024/04/17 07:54:41;;;;;;;1.45;0.98;;;6.20;99.90;;;;;;5454670;26;20328;-72
2024/04/17 07:57:08;;;;;;;1.73;1.63;;;6.20;99.90;;;;;;5452131;26;20002;-72
2024/04/17 07:59:35;;;;;;;1.45;1.42;;;6.20;99.90;;;;;;5454308;26;20072;-73
2024/04/17 08:02:02;;;;;;;1.65;1.50;;;6.20;99.90;;;;;;5452400;26;19995;-72
2024/04/17 08:04:30;;;;;;;1.50;1.10;;;6.20;99.90;;;;;;5452395;26;20341;-73
2024/04/17 08:06:57;;;;;;;3.58;1.95;;;6.20;99.90;;;;;;5454449;26;20027;-74
2024/04/17 08:09:24;;;;;;;4.72;1.50;;;6.10;99.90;;;;;;5453490;26;20026;-73
2024/04/17 08:11:52;;;;;;;1.33;1.23;;;6.20;99.90;;;;;;5452270;26;20010;-73
2024/04/17 08:14:19;;;;;;;2.95;1.40;;;6.20;99.90;;;;;;5453603;26;20332;-73
2024/04/17 08:16:48;;;;;;;2.00;1.55;;;6.30;99.90;;;;;;5452111;26;20018;-73
2024/04/17 08:19:15;;;;;;;1.95;1.55;;;6.40;99.90;;;;;;5451617;26;19999;-73
2024/04/17 08:21:42;;;;;;;1.13;0.93;;;6.40;99.90;;;;;;5452155;26;20402;-74
2024/04/17 08:24:10;;;;;;;1.17;0.80;;;6.40;99.90;;;;;;5453550;26;20009;-73
2024/04/17 08:26:37;;;;;;;1.58;1.38;;;6.50;99.90;;;;;;5482158;26;20018;-73
2024/04/17 08:29:04;;;;;;;2.65;2.05;;;6.60;99.90;;;;;;5453410;26;20073;-73
2024/04/17 08:31:31;;;;;;;1.90;1.85;;;6.80;99.90;;;;;;5454055;26;20063;-73
2024/04/17 08:33:58;;;;;;;4.15;1.50;;;6.90;99.90;;;;;;5452142;26;20002;-74
2024/04/17 08:36:25;;;;;;;3.03;1.55;;;7.00;99.90;;;;;;5453669;26;19995;-73
2024/04/17 08:38:55;;;;;;;3.65;1.95;;;7.10;99.90;;;;;;5451445;26;19999;-73
2024/04/17 08:41:32;;;;;;;2.25;1.30;;;7.20;99.90;;;;;;5451605;26;20068;-73
2024/04/17 08:44:00;;;;;;;3.28;1.45;;;7.40;99.90;;;;;;5453502;26;20007;-74
2024/04/17 08:46:28;;;;;;;2.17;1.58;;;7.60;99.90;;;;;;5451458;26;20068;-73
2024/04/17 08:48:56;;;;;;;1.40;1.30;;;7.70;99.90;;;;;;5449949;26;19994;-74
2024/04/17 08:51:24;;;;;;;1.20;1.10;;;7.90;99.90;;;;;;5450563;26;20002;-74
2024/04/17 08:53:53;;;;;;;3.60;1.67;;;8.00;99.90;;;;;;5452522;26;20003;-74
2024/04/17 08:56:23;;;;;;;;;;;8.10;99.90;;;;;;5453342;26;20010;-74
2024/04/17 08:58:53;;;;;;;3.38;3.15;;;8.10;99.90;;;;;;5453077;26;19924;-74
2024/04/17 09:01:23;;;;;;;1.35;1.20;;;8.20;99.90;;;;;;5457335;26;20415;-73
2024/04/17 09:03:51;;;;;;;2.20;2.03;;;8.10;99.90;;;;;;5480745;26;20009;-74
2024/04/17 09:06:18;;;;;;;2.53;2.35;;;8.20;99.90;;;;;;5457195;26;20443;-75
2024/04/17 09:08:45;;;;;;;2.78;2.00;;;8.30;99.90;;;;;;5481270;26;20010;-74
2024/04/17 09:11:12;;;;;;;3.40;1.35;;;8.40;99.90;;;;;;5452484;26;20075;-74
2024/04/17 09:13:40;;;;;;;2.22;2.13;;;8.40;99.90;;;;;;5453218;26;20072;-74
2024/04/17 09:16:07;;;;;;;1.73;1.63;;;8.50;99.90;;;;;;5447449;26;19998;-74
2024/04/17 09:18:37;;;;;;;1.88;1.20;;;8.50;99.90;;;;;;5454243;26;19998;-74
2024/04/17 09:21:05;;;;;;;1.50;1.40;;;8.60;99.90;;;;;;5469021;26;20006;-73
2024/04/17 09:23:32;;;;;;;1.77;1.20;;;8.60;99.90;;;;;;5463002;26;20018;-73
2024/04/17 09:25:59;;;;;;;2.70;1.23;;;8.70;99.90;;;;;;5462746;26;20030;-74
2024/04/17 09:28:27;;;;;;;2.15;1.73;;;8.70;99.90;;;;;;5451876;26;20071;-73
2024/04/17 09:30:54;;;;;;;2.05;1.67;;;8.80;99.90;;;;;;5435523;26;20013;-73
2024/04/17 09:33:21;;;;;;;2.70;2.25;;;8.90;99.90;;;;;;5435521;26;20067;-73
2024/04/17 09:35:49;;;;;;;5.45;2.05;;;8.90;99.90;;;;;;5486531;26;20541;-74
2024/04/17 09:38:18;;;;;;;2.00;1.75;;;8.90;99.90;;;;;;5485316;26;19994;-74
2024/04/17 09:40:45;;;;;;;5.72;1.00;;;9.00;99.90;;;;;;5474166;26;20293;-74
2024/04/17 09:43:25;;;;;;;2.80;2.28;;;9.00;99.90;;;;;;5451995;26;19998;-74
2024/04/17 09:46:04;;;;;;;3.08;1.73;;;9.00;99.90;;;;;;5458309;26;20010;-74
2024/04/17 09:48:35;;;;;;;4.15;1.80;;;9.00;99.90;;;;;;5472545;26;20487;-74
2024/04/17 09:51:04;;;;;;;1.75;1.55;;;8.90;99.90;;;;;;5461323;26;20071;-73
2024/04/17 09:53:49;;;;;;;1.60;1.50;;;8.90;99.90;;;;;;5452417;26;20006;-74
2024/04/17 09:56:18;;;;;;;1.77;1.63;;;9.00;99.90;;;;;;5452155;26;20087;-74
2024/04/17 09:58:46;;;;;;;5.72;1.95;;;9.00;99.90;;;;;;5426681;26;20014;-74
2024/04/17 10:01:19;;;;;;;5.85;2.70;;;9.00;99.90;;;;;;5471121;26;20009;-73
2024/04/17 10:03:47;;;;;;;3.38;1.77;;;9.00;99.90;;;;;;5480656;26;20011;-74
2024/04/17 10:06:15;;;;;;;5.88;1.60;;;9.00;99.90;;;;;;5450988;26;20003;-73
2024/04/17 10:08:43;;;;;;;2.58;2.28;;;9.10;99.90;;;;;;5452099;26;20011;-73
2024/04/17 10:11:10;;;;;;;4.82;1.90;;;9.10;99.90;;;;;;5462696;26;20003;-74
2024/04/17 10:13:39;;;;;;;3.08;1.85;;;9.20;99.90;;;;;;5450083;26;20010;-73
2024/04/17 10:16:06;;;;;;;2.67;2.45;;;9.30;99.90;;;;;;5451714;26;20003;-73
2024/04/17 10:18:33;;;;;;;1.58;1.00;;;9.50;99.90;;;;;;5455137;26;20413;-73
2024/04/17 10:21:01;;;;;;;2.47;1.83;;;9.60;99.90;;;;;;5423961;26;19999;-73
2024/04/17 10:23:29;;;;;;;1.70;1.60;;;9.70;99.90;;;;;;5475958;26;20009;-73
2024/04/17 10:25:58;;;;;;;3.58;2.10;;;9.90;99.90;;;;;;5461233;26;20013;-73
2024/04/17 10:28:26;;;;;;;3.47;2.55;;;10.10;99.90;;;;;;5484022;26;20472;-73
2024/04/17 10:30:55;;;;;;;5.20;2.13;;;10.30;99.90;;;;;;5468101;26;20030;-74
2024/04/17 10:33:26;;;;;;;4.45;1.95;;;10.60;99.90;;;;;;5470165;26;19999;-73
2024/04/17 10:35:54;;;;;;;8.30;2.83;;;10.70;99.90;;;;;;5452845;26;20006;-73
2024/04/17 10:38:29;;;;;;;1.90;1.80;;;10.90;99.90;;;;;;5461299;26;19999;-73
2024/04/17 10:41:01;;;;;;;4.82;2.47;;;11.00;99.90;;;;;;5483298;26;20002;-73
2024/04/17 10:43:31;;;;;;;5.45;1.85;;;11.00;99.90;;;;;;5455065;26;20010;-73
2024/04/17 10:46:10;;;;;;;3.17;1.50;;;11.20;99.90;;;;;;5454857;26;20129;-73
2024/04/17 10:48:48;;;;;;;2.22;1.30;;;11.40;99.90;;;;;;5453017;26;20038;-73
2024/04/17 10:51:16;;;;;;;4.43;2.13;;;11.50;99.90;;;;;;5453106;26;20002;-73
2024/04/17 10:53:46;;;;;;;4.63;2.45;;;11.50;99.90;;;;;;5486840;26;20002;-73
2024/04/17 10:56:14;;;;;;;4.25;1.67;;;11.50;99.90;;;;;;5485326;26;20384;-73
2024/04/17 10:58:42;;;;;;;3.28;2.15;;;11.50;99.90;;;;;;5457707;26;20010;-73
2024/04/17 11:01:12;;;;;;;4.45;1.75;;;11.50;99.90;;;;;;5454618;26;20010;-73
2024/04/17 11:03:39;;;;;;;3.78;1.88;;;11.40;99.90;;;;;;5472363;26;20441;-73
2024/04/17 11:06:08;;;;;;;1.95;1.73;;;11.30;99.90;;;;;;5452704;26;19999;-73
2024/04/17 11:08:44;;;;;;;7.32;1.75;;;11.20;99.90;;;;;;5454759;26;20531;-73
2024/04/17 11:11:16;;;;;;;5.97;2.50;;;11.20;99.90;;;;;;5454993;26;19999;-74
2024/04/17 11:13:46;;;;;;;2.55;1.60;;;11.40;99.90;;;;;;5455098;26;19999;-73
2024/04/17 11:16:14;;;;;;;3.25;2.38;;;11.30;99.90;;;;;;5480995;26;20013;-74
2024/04/17 11:18:42;;;;;;;2.95;1.10;;;11.50;99.90;;;;;;5454337;26;20401;-73
2024/04/17 11:21:12;;;;;;;1.83;0.98;;;11.70;99.90;;;;;;5434746;26;20348;-73
2024/04/17 11:23:44;;;;;;;2.80;1.40;;;11.80;99.90;;;;;;5472242;26;20075;-73
2024/04/17 11:26:12;;;;;;;2.72;1.33;;;12.10;99.90;;;;;;5453947;26;20027;-73
2024/04/17 11:28:40;;;;;;;3.28;1.13;;;12.40;99.90;;;;;;5451055;26;20454;-73
2024/04/17 11:31:13;;;;;;;4.60;1.75;;;12.70;99.40;;;;;;5452748;26;20007;-73
2024/04/17 11:33:44;;;;;;;1.98;1.27;;;13.00;99.10;;;;;;5452389;26;20015;-73
2024/04/17 11:36:14;;;;;;;4.88;1.52;;;13.30;97.70;;;;;;5506538;26;20012;-74
2024/04/17 11:38:42;;;;;;;4.75;1.67;;;13.60;97.40;;;;;;5477483;26;20466;-73
2024/04/17 11:41:13;;;;;;;3.70;1.42;;;14.00;95.80;;;;;;5440695;26;20099;-73
2024/04/17 11:43:44;;;;;;;3.90;1.38;;;14.30;95.70;;;;;;5481360;26;20048;-73
2024/04/17 11:46:14;;;;;;;;;;;14.50;95.10;;;;;;5484866;26;20012;-73
2024/04/17 11:48:41;;;;;;;2.50;1.55;;;15.00;95.80;;;;;;5465282;26;19924;-73
2024/04/17 11:51:10;;;;;;;2.60;1.45;;;15.40;95.00;;;;;;5452458;26;19999;-73
2024/04/17 11:53:37;;;;;;;1.98;1.10;;;15.90;93.90;;;;;;5454101;26;20010;-73
2024/04/17 11:56:04;;;;;;;3.75;2.08;;;16.50;93.80;;;;;;5453962;26;19999;-74
2024/04/17 11:58:32;;;;;;;5.25;1.65;;;17.10;91.70;;;;;;5422477;26;20011;-73
2024/04/17 12:00:59;;;;;;;4.68;2.40;;;17.50;91.10;;;;;;5469630;26;20075;-74
2024/04/17 12:03:30;;;;;;;3.53;1.83;;;17.80;90.50;;;;;;5482402;26;20076;-73
2024/04/17 12:05:58;;;;;;;6.20;2.42;;;17.80;90.30;;;;;;5452291;26;20432;-73
2024/04/17 12:08:27;;;;;;;4.82;1.90;;;17.90;89.40;;;;;;5482946;26;20456;-73
2024/04/17 12:10:54;;;;;;;6.07;1.83;;;17.90;87.00;;;;;;5454023;26;20012;-73
2024/04/17 12:13:21;;;;;;;5.82;1.48;;;17.80;87.40;;;;;;5422436;26;19998;-74
2024/04/17 12:15:48;;;;;;;2.80;1.08;;;17.60;85.00;;;;;;5453692;26;19998;-73
2024/04/17 12:18:15;;;;;;;2.33;1.50;;;17.20;87.30;;;;;;5453915;26;20071;-74
2024/04/17 12:20:42;;;;;;;3.08;1.15;;;16.90;88.50;;;;;;5451769;26;20340;-74
2024/04/17 12:23:09;;;;;;;4.93;1.77;;;16.70;89.50;;;;;;5451937;26;19998;-73
2024/04/17 12:28:22;;;;;;;4.63;1.38;;;16.60;88.40;;;;;;5454088;26;19995;-73
2024/04/17 12:30:49;;;;;;;3.90;1.00;;;16.40;88.40;;;;;;5453477;26;19995;-74
2024/04/17 12:33:16;;;;;;;2.00;1.38;;;16.20;88.50;;;;;;5422387;26;20007;-73
2024/04/17 12:35:43;;;;;;;4.07;1.20;;;15.90;88.60;;;;;;5422192;26;20014;-73
2024/04/17 12:38:10;;;;;;;2.60;0.98;;;15.60;86.90;;;;;;5453270;26;19995;-73
2024/04/17 12:40:37;;;;;;;3.65;1.60;;;15.30;87.10;;;;;;5421590;26;19999;-73
2024/04/17 12:43:06;;;;;;;3.63;1.08;;;14.90;86.70;;;;;;5451985;26;20010;-73
2024/04/17 12:45:34;;;;;;;1.88;1.77;;;14.70;87.60;;;;;;5451350;26;19998;-73
2024/04/17 12:48:01;;;;;;;1.80;1.70;;;14.50;88.00;;;;;;5451679;26;19998;-73
2024/04/17 12:50:28;;;;;;;5.03;1.55;;;14.30;87.70;;;;;;5453375;26;20010;-74
2024/04/17 12:52:55;;;;;;;3.67;1.38;;;14.40;89.10;;;;;;5451228;26;19998;-73
2024/04/17 12:55:22;;;;;;;4.43;2.00;;;14.50;88.30;;;;;;5451524;26;20468;-73
2024/04/17 12:57:49;;;;;;;2.35;1.40;;;14.70;88.50;;;;;;5452968;26;20070;-73
2024/04/17 13:00:16;;;;;;;3.55;2.10;;;14.70;87.30;;;;;;5421820;26;20010;-73